sensor_id;sensor_type;location;lat;lon;timestamp;temperature;humidity
51982;DHT22;37998;53.416;6.730;2023-06-19T00:00:56;21.60;99.90
51982;DHT22;37998;53.416;6.730;2023-06-19T00:03:22;21.60;99.90
51982;DHT22;37998;53.416;6.730;2023-06-19T00:05:48;21.60;99.90
51982;DHT22;37998;53.416;6.730;2023-06-19T00:08:14;21.60;99.90
51982;DHT22;37998;53.416;6.730;2023-06-19T00:10:40;21.60;99.90
51982;DHT22;37998;53.416;6.730;2023-06-19T00:13:06;21.60;99.90
51982;DHT22;37998;53.416;6.730;2023-06-19T00:15:32;21.60;99.90
51982;DHT22;37998;53.416;6.730;2023-06-19T00:17:58;21.50;99.90
51982;DHT22;37998;53.416;6.730;2023-06-19T00:20:25;21.50;99.90
51982;DHT22;37998;53.416;6.730;2023-06-19T00:22:51;21.50;99.90
51982;DHT22;37998;53.416;6.730;2023-06-19T00:25:26;21.50;99.90
51982;DHT22;37998;53.416;6.730;2023-06-19T00:27:52;21.50;99.90
51982;DHT22;37998;53.416;6.730;2023-06-19T00:30:18;21.50;99.90
51982;DHT22;37998;53.416;6.730;2023-06-19T00:32:44;21.50;99.90
51982;DHT22;37998;53.416;6.730;2023-06-19T00:35:14;21.50;99.90
51982;DHT22;37998;53.416;6.730;2023-06-19T00:37:41;21.50;99.90
51982;DHT22;37998;53.416;6.730;2023-06-19T00:40:19;21.50;99.90
51982;DHT22;37998;53.416;6.730;2023-06-19T00:42:47;21.50;99.90
51982;DHT22;37998;53.416;6.730;2023-06-19T00:45:12;21.50;99.90
51982;DHT22;37998;53.416;6.730;2023-06-19T00:47:39;21.50;99.90
51982;DHT22;37998;53.416;6.730;2023-06-19T00:50:05;21.50;99.90
51982;DHT22;37998;53.416;6.730;2023-06-19T00:52:31;21.50;99.90
51982;DHT22;37998;53.416;6.730;2023-06-19T00:54:57;21.50;99.90
51982;DHT22;37998;53.416;6.730;2023-06-19T00:57:26;21.50;99.90
51982;DHT22;37998;53.416;6.730;2023-06-19T00:59:52;21.50;99.90
51982;DHT22;37998;53.416;6.730;2023-06-19T01:02:19;21.50;99.90
51982;DHT22;37998;53.416;6.730;2023-06-19T01:04:50;21.60;99.90
51982;DHT22;37998;53.416;6.730;2023-06-19T01:07:22;21.50;99.90
51982;DHT22;37998;53.416;6.730;2023-06-19T01:09:57;21.60;99.90
51982;DHT22;37998;53.416;6.730;2023-06-19T01:12:37;21.50;99.90
51982;DHT22;37998;53.416;6.730;2023-06-19T01:15:05;21.60;99.90
51982;DHT22;37998;53.416;6.730;2023-06-19T01:17:35;21.50;99.90
51982;DHT22;37998;53.416;6.730;2023-06-19T01:20:04;21.60;99.90
51982;DHT22;37998;53.416;6.730;2023-06-19T01:22:37;21.60;99.90
51982;DHT22;37998;53.416;6.730;2023-06-19T01:25:05;21.50;99.90
51982;DHT22;37998;53.416;6.730;2023-06-19T01:27:31;21.40;99.90
51982;DHT22;37998;53.416;6.730;2023-06-19T01:30:00;21.40;99.90
51982;DHT22;37998;53.416;6.730;2023-06-19T01:35:25;21.40;99.90
51982;DHT22;37998;53.416;6.730;2023-06-19T01:37:53;21.30;99.90
51982;DHT22;37998;53.416;6.730;2023-06-19T01:40:20;21.30;99.90
51982;DHT22;37998;53.416;6.730;2023-06-19T01:42:54;21.30;99.90
51982;DHT22;37998;53.416;6.730;2023-06-19T01:45:21;21.30;99.90
51982;DHT22;37998;53.416;6.730;2023-06-19T01:47:47;21.30;99.90
51982;DHT22;37998;53.416;6.730;2023-06-19T01:50:14;21.30;99.90
51982;DHT22;37998;53.416;6.730;2023-06-19T01:52:44;21.30;99.90
51982;DHT22;37998;53.416;6.730;2023-06-19T01:55:14;21.20;99.90
51982;DHT22;37998;53.416;6.730;2023-06-19T01:57:40;21.20;99.90
51982;DHT22;37998;53.416;6.730;2023-06-19T02:00:06;21.20;99.90
51982;DHT22;37998;53.416;6.730;2023-06-19T02:02:42;21.20;99.90
51982;DHT22;37998;53.416;6.730;2023-06-19T02:05:11;21.20;99.90
51982;DHT22;37998;53.416;6.730;2023-06-19T02:07:41;21.20;99.90
51982;DHT22;37998;53.416;6.730;2023-06-19T02:10:07;21.20;99.90
51982;DHT22;37998;53.416;6.730;2023-06-19T02:12:34;21.20;99.90
51982;DHT22;37998;53.416;6.730;2023-06-19T02:15:00;21.20;99.90
51982;DHT22;37998;53.416;6.730;2023-06-19T02:17:26;21.20;99.90
51982;DHT22;37998;53.416;6.730;2023-06-19T02:19:51;21.20;99.90
51982;DHT22;37998;53.416;6.730;2023-06-19T02:22:18;21.20;99.90
51982;DHT22;37998;53.416;6.730;2023-06-19T02:24:44;21.20;99.90
51982;DHT22;37998;53.416;6.730;2023-06-19T02:27:12;21.20;99.90
51982;DHT22;37998;53.416;6.730;2023-06-19T02:29:38;21.10;99.90
51982;DHT22;37998;53.416;6.730;2023-06-19T02:32:04;21.10;99.90
51982;DHT22;37998;53.416;6.730;2023-06-19T02:34:31;21.10;99.90
51982;DHT22;37998;53.416;6.730;2023-06-19T02:36:58;21.10;99.90
51982;DHT22;37998;53.416;6.730;2023-06-19T02:39:24;21.10;99.90
51982;DHT22;37998;53.416;6.730;2023-06-19T02:41:53;21.10;99.90
51982;DHT22;37998;53.416;6.730;2023-06-19T02:44:19;21.10;99.90
51982;DHT22;37998;53.416;6.730;2023-06-19T02:46:45;21.10;99.90
51982;DHT22;37998;53.416;6.730;2023-06-19T02:49:10;21.00;99.90
51982;DHT22;37998;53.416;6.730;2023-06-19T02:51:36;21.00;99.90
51982;DHT22;37998;53.416;6.730;2023-06-19T02:54:02;21.10;99.90
51982;DHT22;37998;53.416;6.730;2023-06-19T02:56:28;21.10;99.90
51982;DHT22;37998;53.416;6.730;2023-06-19T02:58:54;21.10;99.90
51982;DHT22;37998;53.416;6.730;2023-06-19T03:01:20;21.20;99.90
51982;DHT22;37998;53.416;6.730;2023-06-19T03:03:46;21.20;99.90
51982;DHT22;37998;53.416;6.730;2023-06-19T03:06:13;21.20;99.90
51982;DHT22;37998;53.416;6.730;2023-06-19T03:08:39;21.30;99.90
51982;DHT22;37998;53.416;6.730;2023-06-19T03:11:05;21.30;99.90
51982;DHT22;37998;53.416;6.730;2023-06-19T03:13:50;21.30;99.90
51982;DHT22;37998;53.416;6.730;2023-06-19T03:16:18;21.30;99.90
51982;DHT22;37998;53.416;6.730;2023-06-19T03:18:44;21.30;99.90
51982;DHT22;37998;53.416;6.730;2023-06-19T03:21:15;21.30;99.90
51982;DHT22;37998;53.416;6.730;2023-06-19T03:23:42;21.30;99.90
51982;DHT22;37998;53.416;6.730;2023-06-19T03:26:09;21.40;99.80
51982;DHT22;37998;53.416;6.730;2023-06-19T03:28:37;21.50;99.40
51982;DHT22;37998;53.416;6.730;2023-06-19T03:31:05;21.40;99.00
51982;DHT22;37998;53.416;6.730;2023-06-19T03:33:31;21.50;98.80
51982;DHT22;37998;53.416;6.730;2023-06-19T03:35:57;21.50;98.60
51982;DHT22;37998;53.416;6.730;2023-06-19T03:38:53;21.50;98.30
51982;DHT22;37998;53.416;6.730;2023-06-19T03:41:24;21.50;98.60
51982;DHT22;37998;53.416;6.730;2023-06-19T03:43:50;21.50;98.20
51982;DHT22;37998;53.416;6.730;2023-06-19T03:46:16;21.60;98.20
51982;DHT22;37998;53.416;6.730;2023-06-19T03:48:42;21.50;98.00
51982;DHT22;37998;53.416;6.730;2023-06-19T03:51:10;21.50;98.00
51982;DHT22;37998;53.416;6.730;2023-06-19T03:53:37;21.50;98.00
51982;DHT22;37998;53.416;6.730;2023-06-19T03:56:03;21.50;98.00
51982;DHT22;37998;53.416;6.730;2023-06-19T03:58:29;21.50;98.00
51982;DHT22;37998;53.416;6.730;2023-06-19T04:00:54;21.50;97.90
51982;DHT22;37998;53.416;6.730;2023-06-19T04:03:20;21.50;98.00
51982;DHT22;37998;53.416;6.730;2023-06-19T04:05:46;21.50;98.00
51982;DHT22;37998;53.416;6.730;2023-06-19T04:08:13;21.50;98.10
51982;DHT22;37998;53.416;6.730;2023-06-19T04:10:43;21.40;98.20
51982;DHT22;37998;53.416;6.730;2023-06-19T04:13:09;21.40;98.30
51982;DHT22;37998;53.416;6.730;2023-06-19T04:15:35;21.40;98.40
51982;DHT22;37998;53.416;6.730;2023-06-19T04:18:01;21.40;98.50
51982;DHT22;37998;53.416;6.730;2023-06-19T04:20:27;21.40;98.60
51982;DHT22;37998;53.416;6.730;2023-06-19T04:22:53;21.30;98.60
51982;DHT22;37998;53.416;6.730;2023-06-19T04:25:19;21.30;98.50
51982;DHT22;37998;53.416;6.730;2023-06-19T04:27:46;21.30;98.40
51982;DHT22;37998;53.416;6.730;2023-06-19T04:30:12;21.40;98.40
51982;DHT22;37998;53.416;6.730;2023-06-19T04:32:38;21.40;98.40
51982;DHT22;37998;53.416;6.730;2023-06-19T04:35:09;21.40;98.50
51982;DHT22;37998;53.416;6.730;2023-06-19T04:37:35;21.40;98.50
51982;DHT22;37998;53.416;6.730;2023-06-19T04:40:02;21.40;98.60
51982;DHT22;37998;53.416;6.730;2023-06-19T04:42:29;21.40;98.60
51982;DHT22;37998;53.416;6.730;2023-06-19T04:44:55;21.40;98.70
51982;DHT22;37998;53.416;6.730;2023-06-19T04:47:23;21.40;98.80
51982;DHT22;37998;53.416;6.730;2023-06-19T04:49:49;21.40;99.30
51982;DHT22;37998;53.416;6.730;2023-06-19T04:52:15;21.40;99.20
51982;DHT22;37998;53.416;6.730;2023-06-19T04:54:41;21.40;99.30
51982;DHT22;37998;53.416;6.730;2023-06-19T04:57:09;21.40;99.40
51982;DHT22;37998;53.416;6.730;2023-06-19T04:59:36;21.40;99.40
51982;DHT22;37998;53.416;6.730;2023-06-19T05:02:02;21.40;99.50
51982;DHT22;37998;53.416;6.730;2023-06-19T05:04:28;21.40;99.60
51982;DHT22;37998;53.416;6.730;2023-06-19T05:07:01;21.40;99.70
51982;DHT22;37998;53.416;6.730;2023-06-19T05:09:26;21.40;99.90
51982;DHT22;37998;53.416;6.730;2023-06-19T05:11:52;21.40;99.90
51982;DHT22;37998;53.416;6.730;2023-06-19T05:14:21;21.40;99.90
51982;DHT22;37998;53.416;6.730;2023-06-19T05:16:47;21.40;99.90
51982;DHT22;37998;53.416;6.730;2023-06-19T05:19:13;21.40;99.90
51982;DHT22;37998;53.416;6.730;2023-06-19T05:21:39;21.40;99.90
51982;DHT22;37998;53.416;6.730;2023-06-19T05:24:05;21.50;99.90
51982;DHT22;37998;53.416;6.730;2023-06-19T05:26:32;21.40;99.90
51982;DHT22;37998;53.416;6.730;2023-06-19T05:28:58;21.50;99.90
51982;DHT22;37998;53.416;6.730;2023-06-19T05:31:24;21.50;99.90
51982;DHT22;37998;53.416;6.730;2023-06-19T05:33:50;21.50;99.90
51982;DHT22;37998;53.416;6.730;2023-06-19T05:36:17;21.50;99.90
51982;DHT22;37998;53.416;6.730;2023-06-19T05:38:43;21.50;99.90
51982;DHT22;37998;53.416;6.730;2023-06-19T05:41:09;21.50;99.90
51982;DHT22;37998;53.416;6.730;2023-06-19T05:43:36;21.40;99.90
51982;DHT22;37998;53.416;6.730;2023-06-19T05:46:02;21.40;99.90
51982;DHT22;37998;53.416;6.730;2023-06-19T05:48:29;21.40;99.90
51982;DHT22;37998;53.416;6.730;2023-06-19T05:50:55;21.40;99.90
51982;DHT22;37998;53.416;6.730;2023-06-19T05:53:21;20.90;99.90
51982;DHT22;37998;53.416;6.730;2023-06-19T05:55:47;21.40;99.90
51982;DHT22;37998;53.416;6.730;2023-06-19T05:58:13;21.40;99.90
51982;DHT22;37998;53.416;6.730;2023-06-19T06:00:39;21.50;99.90
51982;DHT22;37998;53.416;6.730;2023-06-19T06:03:04;21.50;99.90
51982;DHT22;37998;53.416;6.730;2023-06-19T06:05:31;21.60;99.90
51982;DHT22;37998;53.416;6.730;2023-06-19T06:07:56;21.60;99.90
51982;DHT22;37998;53.416;6.730;2023-06-19T06:10:25;21.70;99.90
51982;DHT22;37998;53.416;6.730;2023-06-19T06:12:51;21.70;99.90
51982;DHT22;37998;53.416;6.730;2023-06-19T06:15:17;21.70;99.90
51982;DHT22;37998;53.416;6.730;2023-06-19T06:17:43;21.70;99.90
51982;DHT22;37998;53.416;6.730;2023-06-19T06:20:09;21.70;99.90
51982;DHT22;37998;53.416;6.730;2023-06-19T06:22:39;21.70;99.90
51982;DHT22;37998;53.416;6.730;2023-06-19T06:25:05;21.60;99.90
51982;DHT22;37998;53.416;6.730;2023-06-19T06:27:32;21.60;99.90
51982;DHT22;37998;53.416;6.730;2023-06-19T06:29:58;21.60;99.90
51982;DHT22;37998;53.416;6.730;2023-06-19T06:32:24;21.60;99.90
51982;DHT22;37998;53.416;6.730;2023-06-19T06:34:50;21.60;99.90
51982;DHT22;37998;53.416;6.730;2023-06-19T06:37:16;21.50;99.90
51982;DHT22;37998;53.416;6.730;2023-06-19T06:39:48;21.60;99.90
51982;DHT22;37998;53.416;6.730;2023-06-19T06:42:16;21.50;99.90
51982;DHT22;37998;53.416;6.730;2023-06-19T06:44:43;21.60;99.90
51982;DHT22;37998;53.416;6.730;2023-06-19T06:47:10;21.60;99.90
51982;DHT22;37998;53.416;6.730;2023-06-19T06:49:35;21.60;99.90
51982;DHT22;37998;53.416;6.730;2023-06-19T06:52:05;21.80;99.90
51982;DHT22;37998;53.416;6.730;2023-06-19T06:54:31;21.80;99.90
51982;DHT22;37998;53.416;6.730;2023-06-19T06:56:58;21.90;99.90
51982;DHT22;37998;53.416;6.730;2023-06-19T06:59:26;21.90;99.90
51982;DHT22;37998;53.416;6.730;2023-06-19T07:01:54;21.80;99.90
51982;DHT22;37998;53.416;6.730;2023-06-19T07:04:20;21.70;99.90
51982;DHT22;37998;53.416;6.730;2023-06-19T07:06:46;21.70;99.90
51982;DHT22;37998;53.416;6.730;2023-06-19T07:09:12;21.70;99.90
51982;DHT22;37998;53.416;6.730;2023-06-19T07:11:38;21.70;99.90
51982;DHT22;37998;53.416;6.730;2023-06-19T07:14:04;21.60;99.90
51982;DHT22;37998;53.416;6.730;2023-06-19T07:16:30;21.60;99.90
51982;DHT22;37998;53.416;6.730;2023-06-19T07:18:56;21.60;99.90
51982;DHT22;37998;53.416;6.730;2023-06-19T07:21:22;21.60;99.90
51982;DHT22;37998;53.416;6.730;2023-06-19T07:23:48;21.60;99.90
51982;DHT22;37998;53.416;6.730;2023-06-19T07:26:14;21.60;99.90
51982;DHT22;37998;53.416;6.730;2023-06-19T07:28:41;21.60;99.90
51982;DHT22;37998;53.416;6.730;2023-06-19T07:31:07;21.70;99.90
51982;DHT22;37998;53.416;6.730;2023-06-19T07:33:33;21.70;99.90
51982;DHT22;37998;53.416;6.730;2023-06-19T07:36:00;21.70;99.90
51982;DHT22;37998;53.416;6.730;2023-06-19T07:38:28;21.70;99.90
51982;DHT22;37998;53.416;6.730;2023-06-19T07:40:54;21.80;99.90
51982;DHT22;37998;53.416;6.730;2023-06-19T07:43:20;21.80;99.90
51982;DHT22;37998;53.416;6.730;2023-06-19T07:45:48;21.70;99.90
51982;DHT22;37998;53.416;6.730;2023-06-19T07:48:15;21.70;99.90
51982;DHT22;37998;53.416;6.730;2023-06-19T07:50:41;21.70;99.90
51982;DHT22;37998;53.416;6.730;2023-06-19T07:53:31;21.60;99.90
51982;DHT22;37998;53.416;6.730;2023-06-19T07:55:57;21.50;99.90
51982;DHT22;37998;53.416;6.730;2023-06-19T07:58:23;21.40;99.90
51982;DHT22;37998;53.416;6.730;2023-06-19T08:00:52;21.30;99.90
51982;DHT22;37998;53.416;6.730;2023-06-19T08:03:18;21.10;99.90
51982;DHT22;37998;53.416;6.730;2023-06-19T08:05:44;20.90;99.90
51982;DHT22;37998;53.416;6.730;2023-06-19T08:08:12;20.80;99.90
51982;DHT22;37998;53.416;6.730;2023-06-19T08:10:38;20.70;99.90
51982;DHT22;37998;53.416;6.730;2023-06-19T08:13:04;20.60;99.90
51982;DHT22;37998;53.416;6.730;2023-06-19T08:15:33;20.60;99.90
51982;DHT22;37998;53.416;6.730;2023-06-19T08:17:59;20.50;99.90
51982;DHT22;37998;53.416;6.730;2023-06-19T08:20:25;20.50;99.90
51982;DHT22;37998;53.416;6.730;2023-06-19T08:22:51;20.50;99.90
51982;DHT22;37998;53.416;6.730;2023-06-19T08:25:16;20.60;99.90
51982;DHT22;37998;53.416;6.730;2023-06-19T08:27:43;20.60;99.90
51982;DHT22;37998;53.416;6.730;2023-06-19T08:30:11;20.60;99.90
51982;DHT22;37998;53.416;6.730;2023-06-19T08:32:37;20.60;99.90
51982;DHT22;37998;53.416;6.730;2023-06-19T08:35:03;20.60;99.90
51982;DHT22;37998;53.416;6.730;2023-06-19T08:37:29;20.60;99.90
51982;DHT22;37998;53.416;6.730;2023-06-19T08:39:55;20.60;99.90
51982;DHT22;37998;53.416;6.730;2023-06-19T08:42:22;20.60;99.90
51982;DHT22;37998;53.416;6.730;2023-06-19T08:44:49;20.60;99.90
51982;DHT22;37998;53.416;6.730;2023-06-19T08:47:15;20.60;99.90
51982;DHT22;37998;53.416;6.730;2023-06-19T08:49:40;20.60;99.90
51982;DHT22;37998;53.416;6.730;2023-06-19T08:52:07;20.60;99.90
51982;DHT22;37998;53.416;6.730;2023-06-19T08:54:33;20.60;99.90
51982;DHT22;37998;53.416;6.730;2023-06-19T08:57:03;20.70;99.90
51982;DHT22;37998;53.416;6.730;2023-06-19T08:59:30;20.70;99.90
51982;DHT22;37998;53.416;6.730;2023-06-19T09:01:57;20.80;99.90
51982;DHT22;37998;53.416;6.730;2023-06-19T09:04:32;20.90;99.90
51982;DHT22;37998;53.416;6.730;2023-06-19T09:07:01;20.90;99.90
51982;DHT22;37998;53.416;6.730;2023-06-19T09:09:31;21.00;99.90
51982;DHT22;37998;53.416;6.730;2023-06-19T09:12:00;21.00;99.90
51982;DHT22;37998;53.416;6.730;2023-06-19T09:14:37;21.10;99.90
51982;DHT22;37998;53.416;6.730;2023-06-19T09:17:04;21.20;99.90
51982;DHT22;37998;53.416;6.730;2023-06-19T09:19:32;21.20;99.90
51982;DHT22;37998;53.416;6.730;2023-06-19T09:22:10;21.00;99.90
51982;DHT22;37998;53.416;6.730;2023-06-19T09:24:39;21.10;99.90
51982;DHT22;37998;53.416;6.730;2023-06-19T09:27:14;21.00;99.90
51982;DHT22;37998;53.416;6.730;2023-06-19T09:29:41;21.00;99.90
51982;DHT22;37998;53.416;6.730;2023-06-19T09:32:34;20.90;99.90
51982;DHT22;37998;53.416;6.730;2023-06-19T09:35:01;20.90;99.90
51982;DHT22;37998;53.416;6.730;2023-06-19T09:37:29;20.90;99.90
51982;DHT22;37998;53.416;6.730;2023-06-19T09:40:02;20.90;99.90
51982;DHT22;37998;53.416;6.730;2023-06-19T09:42:39;20.90;99.90
51982;DHT22;37998;53.416;6.730;2023-06-19T09:45:11;20.70;99.90
51982;DHT22;37998;53.416;6.730;2023-06-19T09:47:42;20.70;99.90
51982;DHT22;37998;53.416;6.730;2023-06-19T09:50:12;20.50;99.90
51982;DHT22;37998;53.416;6.730;2023-06-19T09:52:39;20.60;99.90
51982;DHT22;37998;53.416;6.730;2023-06-19T09:55:09;20.60;99.90
51982;DHT22;37998;53.416;6.730;2023-06-19T09:57:39;20.70;99.90
51982;DHT22;37998;53.416;6.730;2023-06-19T10:00:07;20.70;99.90
51982;DHT22;37998;53.416;6.730;2023-06-19T10:02:44;20.70;99.90
51982;DHT22;37998;53.416;6.730;2023-06-19T10:05:11;20.70;99.90
51982;DHT22;37998;53.416;6.730;2023-06-19T10:07:45;20.70;99.90
51982;DHT22;37998;53.416;6.730;2023-06-19T10:10:28;20.90;99.90
51982;DHT22;37998;53.416;6.730;2023-06-19T10:12:58;20.90;99.90
51982;DHT22;37998;53.416;6.730;2023-06-19T10:15:27;21.00;99.90
51982;DHT22;37998;53.416;6.730;2023-06-19T10:17:59;21.00;99.90
51982;DHT22;37998;53.416;6.730;2023-06-19T10:20:34;21.10;99.90
51982;DHT22;37998;53.416;6.730;2023-06-19T10:23:17;21.20;99.90
51982;DHT22;37998;53.416;6.730;2023-06-19T10:25:45;21.20;99.90
51982;DHT22;37998;53.416;6.730;2023-06-19T10:28:20;21.20;99.90
51982;DHT22;37998;53.416;6.730;2023-06-19T10:31:05;21.30;99.90
51982;DHT22;37998;53.416;6.730;2023-06-19T10:33:35;21.40;99.90
51982;DHT22;37998;53.416;6.730;2023-06-19T10:36:15;21.30;99.90
51982;DHT22;37998;53.416;6.730;2023-06-19T10:38:41;21.40;99.90
51982;DHT22;37998;53.416;6.730;2023-06-19T10:41:16;21.40;99.90
51982;DHT22;37998;53.416;6.730;2023-06-19T10:43:52;21.40;99.90
51982;DHT22;37998;53.416;6.730;2023-06-19T10:46:18;21.50;99.90
51982;DHT22;37998;53.416;6.730;2023-06-19T10:48:44;21.60;99.90
51982;DHT22;37998;53.416;6.730;2023-06-19T10:51:20;21.60;99.90
51982;DHT22;37998;53.416;6.730;2023-06-19T10:53:46;21.60;99.90
51982;DHT22;37998;53.416;6.730;2023-06-19T10:56:12;21.70;99.90
51982;DHT22;37998;53.416;6.730;2023-06-19T10:58:38;21.80;99.90
51982;DHT22;37998;53.416;6.730;2023-06-19T11:01:06;21.80;99.90
51982;DHT22;37998;53.416;6.730;2023-06-19T11:03:32;21.70;99.90
51982;DHT22;37998;53.416;6.730;2023-06-19T11:06:02;21.70;99.90
51982;DHT22;37998;53.416;6.730;2023-06-19T11:08:28;21.70;99.90
51982;DHT22;37998;53.416;6.730;2023-06-19T11:10:55;21.70;99.90
51982;DHT22;37998;53.416;6.730;2023-06-19T11:13:21;21.70;99.90
51982;DHT22;37998;53.416;6.730;2023-06-19T11:15:48;21.70;99.90
51982;DHT22;37998;53.416;6.730;2023-06-19T11:18:18;21.90;99.90
51982;DHT22;37998;53.416;6.730;2023-06-19T11:20:46;22.00;99.90
51982;DHT22;37998;53.416;6.730;2023-06-19T11:23:12;22.10;99.90
51982;DHT22;37998;53.416;6.730;2023-06-19T11:25:40;22.20;99.90
51982;DHT22;37998;53.416;6.730;2023-06-19T11:28:16;22.10;99.90
51982;DHT22;37998;53.416;6.730;2023-06-19T11:30:59;22.00;99.90
51982;DHT22;37998;53.416;6.730;2023-06-19T11:33:25;21.90;99.90
51982;DHT22;37998;53.416;6.730;2023-06-19T11:35:52;22.00;99.90
51982;DHT22;37998;53.416;6.730;2023-06-19T11:38:23;22.20;99.90
51982;DHT22;37998;53.416;6.730;2023-06-19T11:40:50;22.30;99.90
51982;DHT22;37998;53.416;6.730;2023-06-19T11:45:50;22.50;99.90
51982;DHT22;37998;53.416;6.730;2023-06-19T11:48:24;22.60;99.90
51982;DHT22;37998;53.416;6.730;2023-06-19T11:50:51;22.80;99.90
51982;DHT22;37998;53.416;6.730;2023-06-19T11:53:23;22.80;99.90
51982;DHT22;37998;53.416;6.730;2023-06-19T11:55:50;23.00;99.90
51982;DHT22;37998;53.416;6.730;2023-06-19T11:58:16;23.00;99.90
51982;DHT22;37998;53.416;6.730;2023-06-19T12:00:43;23.30;99.90
51982;DHT22;37998;53.416;6.730;2023-06-19T12:03:09;23.40;99.90
51982;DHT22;37998;53.416;6.730;2023-06-19T12:05:36;23.50;99.90
51982;DHT22;37998;53.416;6.730;2023-06-19T12:08:02;23.50;99.90
51982;DHT22;37998;53.416;6.730;2023-06-19T12:10:30;23.40;99.90
51982;DHT22;37998;53.416;6.730;2023-06-19T12:12:56;23.40;99.90
51982;DHT22;37998;53.416;6.730;2023-06-19T12:15:25;23.30;99.90
51982;DHT22;37998;53.416;6.730;2023-06-19T12:17:52;23.30;99.90
51982;DHT22;37998;53.416;6.730;2023-06-19T12:20:18;23.40;99.90
51982;DHT22;37998;53.416;6.730;2023-06-19T12:22:44;23.40;99.90
51982;DHT22;37998;53.416;6.730;2023-06-19T12:25:10;23.40;99.90
51982;DHT22;37998;53.416;6.730;2023-06-19T12:27:40;23.50;99.90
51982;DHT22;37998;53.416;6.730;2023-06-19T12:30:06;23.70;99.90
51982;DHT22;37998;53.416;6.730;2023-06-19T12:32:33;23.80;99.90
51982;DHT22;37998;53.416;6.730;2023-06-19T12:35:00;23.70;99.90
51982;DHT22;37998;53.416;6.730;2023-06-19T12:37:26;23.70;99.90
51982;DHT22;37998;53.416;6.730;2023-06-19T12:39:52;23.60;99.90
51982;DHT22;37998;53.416;6.730;2023-06-19T12:42:18;23.60;99.90
51982;DHT22;37998;53.416;6.730;2023-06-19T12:44:47;23.70;99.90
51982;DHT22;37998;53.416;6.730;2023-06-19T12:47:13;23.70;99.90
51982;DHT22;37998;53.416;6.730;2023-06-19T12:49:42;23.90;99.90
51982;DHT22;37998;53.416;6.730;2023-06-19T12:52:08;23.90;99.90
51982;DHT22;37998;53.416;6.730;2023-06-19T12:54:34;24.00;99.80
51982;DHT22;37998;53.416;6.730;2023-06-19T12:57:07;24.10;99.60
51982;DHT22;37998;53.416;6.730;2023-06-19T12:59:33;24.10;99.50
51982;DHT22;37998;53.416;6.730;2023-06-19T13:01:58;24.30;99.30
51982;DHT22;37998;53.416;6.730;2023-06-19T13:04:25;24.40;99.20
51982;DHT22;37998;53.416;6.730;2023-06-19T13:06:50;24.40;98.60
51982;DHT22;37998;53.416;6.730;2023-06-19T13:09:17;24.40;98.50
51982;DHT22;37998;53.416;6.730;2023-06-19T13:11:42;24.40;98.70
51982;DHT22;37998;53.416;6.730;2023-06-19T13:14:08;24.60;98.70
51982;DHT22;37998;53.416;6.730;2023-06-19T13:16:34;24.80;98.40
51982;DHT22;37998;53.416;6.730;2023-06-19T13:19:00;24.90;98.00
51982;DHT22;37998;53.416;6.730;2023-06-19T13:21:26;25.00;97.60
51982;DHT22;37998;53.416;6.730;2023-06-19T13:23:52;24.90;97.40
51982;DHT22;37998;53.416;6.730;2023-06-19T13:26:18;24.80;97.20
51982;DHT22;37998;53.416;6.730;2023-06-19T13:28:44;24.70;97.60
51982;DHT22;37998;53.416;6.730;2023-06-19T13:31:09;24.70;97.30
51982;DHT22;37998;53.416;6.730;2023-06-19T13:33:35;24.80;97.00
51982;DHT22;37998;53.416;6.730;2023-06-19T13:36:01;24.70;97.00
51982;DHT22;37998;53.416;6.730;2023-06-19T13:38:27;24.60;97.20
51982;DHT22;37998;53.416;6.730;2023-06-19T13:40:54;24.60;97.30
51982;DHT22;37998;53.416;6.730;2023-06-19T13:43:23;24.60;97.30
51982;DHT22;37998;53.416;6.730;2023-06-19T13:45:49;24.70;97.40
51982;DHT22;37998;53.416;6.730;2023-06-19T13:48:15;24.80;97.20
51982;DHT22;37998;53.416;6.730;2023-06-19T13:50:41;24.80;97.10
51982;DHT22;37998;53.416;6.730;2023-06-19T13:53:07;24.90;96.90
51982;DHT22;37998;53.416;6.730;2023-06-19T13:55:33;24.80;96.70
51982;DHT22;37998;53.416;6.730;2023-06-19T13:57:58;24.90;96.90
51982;DHT22;37998;53.416;6.730;2023-06-19T14:00:24;25.10;96.60
51982;DHT22;37998;53.416;6.730;2023-06-19T14:02:50;25.20;96.20
51982;DHT22;37998;53.416;6.730;2023-06-19T14:05:16;25.20;96.10
51982;DHT22;37998;53.416;6.730;2023-06-19T14:07:43;25.30;96.10
51982;DHT22;37998;53.416;6.730;2023-06-19T14:10:09;25.40;95.80
51982;DHT22;37998;53.416;6.730;2023-06-19T14:12:35;25.50;95.50
51982;DHT22;37998;53.416;6.730;2023-06-19T14:15:01;25.60;95.30
51982;DHT22;37998;53.416;6.730;2023-06-19T14:17:27;25.60;95.00
51982;DHT22;37998;53.416;6.730;2023-06-19T14:19:53;25.60;95.00
51982;DHT22;37998;53.416;6.730;2023-06-19T14:22:24;25.60;95.00
51982;DHT22;37998;53.416;6.730;2023-06-19T14:24:50;25.60;94.80
51982;DHT22;37998;53.416;6.730;2023-06-19T14:27:16;25.40;94.90
51982;DHT22;37998;53.416;6.730;2023-06-19T14:29:42;25.40;94.80
51982;DHT22;37998;53.416;6.730;2023-06-19T14:32:08;25.40;95.10
51982;DHT22;37998;53.416;6.730;2023-06-19T14:34:34;25.40;94.50
51982;DHT22;37998;53.416;6.730;2023-06-19T14:37:05;25.30;94.30
51982;DHT22;37998;53.416;6.730;2023-06-19T14:39:31;25.20;94.40
51982;DHT22;37998;53.416;6.730;2023-06-19T14:41:57;25.30;94.50
51982;DHT22;37998;53.416;6.730;2023-06-19T14:44:22;25.20;94.30
51982;DHT22;37998;53.416;6.730;2023-06-19T14:46:48;25.20;94.30
51982;DHT22;37998;53.416;6.730;2023-06-19T14:49:14;25.20;94.30
51982;DHT22;37998;53.416;6.730;2023-06-19T14:51:42;25.10;94.30
51982;DHT22;37998;53.416;6.730;2023-06-19T14:54:08;25.20;94.20
51982;DHT22;37998;53.416;6.730;2023-06-19T14:56:34;25.20;94.20
51982;DHT22;37998;53.416;6.730;2023-06-19T14:59:00;25.30;94.20
51982;DHT22;37998;53.416;6.730;2023-06-19T15:01:26;25.30;94.00
51982;DHT22;37998;53.416;6.730;2023-06-19T15:03:52;25.30;93.90
51982;DHT22;37998;53.416;6.730;2023-06-19T15:06:18;25.40;93.90
51982;DHT22;37998;53.416;6.730;2023-06-19T15:08:44;25.50;93.60
51982;DHT22;37998;53.416;6.730;2023-06-19T15:11:10;25.40;93.30
51982;DHT22;37998;53.416;6.730;2023-06-19T15:13:36;25.40;93.40
51982;DHT22;37998;53.416;6.730;2023-06-19T15:16:02;25.30;93.20
51982;DHT22;37998;53.416;6.730;2023-06-19T15:18:30;25.30;93.20
51982;DHT22;37998;53.416;6.730;2023-06-19T15:20:56;25.30;93.20
51982;DHT22;37998;53.416;6.730;2023-06-19T15:23:22;25.30;93.00
51982;DHT22;37998;53.416;6.730;2023-06-19T15:25:48;25.30;93.10
51982;DHT22;37998;53.416;6.730;2023-06-19T15:28:14;25.40;92.90
51982;DHT22;37998;53.416;6.730;2023-06-19T15:30:40;25.60;92.90
51982;DHT22;37998;53.416;6.730;2023-06-19T15:33:07;25.50;92.40
51982;DHT22;37998;53.416;6.730;2023-06-19T15:35:32;25.60;92.60
51982;DHT22;37998;53.416;6.730;2023-06-19T15:37:59;25.50;92.40